sensor_id;sensor_type;location;lat;lon;timestamp;P1;durP1;ratioP1;P2;durP2;ratioP2
6113;SDS011;3087;48.392;10.836;2022-08-19T00:01:20;4.43;;;4.03;;
6113;SDS011;3087;48.392;10.836;2022-08-19T00:03:47;4.80;;;3.50;;
6113;SDS011;3087;48.392;10.836;2022-08-19T00:06:13;3.25;;;2.97;;
6113;SDS011;3087;48.392;10.836;2022-08-19T00:08:39;3.47;;;3.17;;
6113;SDS011;3087;48.392;10.836;2022-08-19T00:11:05;3.42;;;3.13;;
6113;SDS011;3087;48.392;10.836;2022-08-19T00:13:32;3.60;;;3.15;;
6113;SDS011;3087;48.392;10.836;2022-08-19T00:15:58;3.10;;;2.80;;
6113;SDS011;3087;48.392;10.836;2022-08-19T00:18:24;3.70;;;2.78;;
6113;SDS011;3087;48.392;10.836;2022-08-19T00:20:50;2.70;;;2.50;;
6113;SDS011;3087;48.392;10.836;2022-08-19T00:23:16;3.13;;;2.92;;
6113;SDS011;3087;48.392;10.836;2022-08-19T00:25:42;3.60;;;3.00;;
6113;SDS011;3087;48.392;10.836;2022-08-19T00:28:07;2.90;;;2.42;;
6113;SDS011;3087;48.392;10.836;2022-08-19T00:30:33;4.15;;;3.25;;
6113;SDS011;3087;48.392;10.836;2022-08-19T00:32:59;3.92;;;2.80;;
6113;SDS011;3087;48.392;10.836;2022-08-19T00:35:24;5.63;;;3.13;;
6113;SDS011;3087;48.392;10.836;2022-08-19T00:37:52;4.38;;;2.95;;
6113;SDS011;3087;48.392;10.836;2022-08-19T00:40:18;5.30;;;3.53;;
6113;SDS011;3087;48.392;10.836;2022-08-19T00:42:44;3.63;;;2.38;;
6113;SDS011;3087;48.392;10.836;2022-08-19T00:45:15;2.75;;;2.05;;
6113;SDS011;3087;48.392;10.836;2022-08-19T00:47:46;4.18;;;2.67;;
6113;SDS011;3087;48.392;10.836;2022-08-19T00:50:12;8.68;;;2.75;;
6113;SDS011;3087;48.392;10.836;2022-08-19T00:52:42;2.78;;;2.38;;
6113;SDS011;3087;48.392;10.836;2022-08-19T00:55:28;4.45;;;2.70;;
6113;SDS011;3087;48.392;10.836;2022-08-19T00:57:58;3.85;;;2.78;;
6113;SDS011;3087;48.392;10.836;2022-08-19T01:00:30;4.88;;;3.17;;
6113;SDS011;3087;48.392;10.836;2022-08-19T01:02:56;3.78;;;2.83;;
6113;SDS011;3087;48.392;10.836;2022-08-19T01:05:23;4.10;;;3.00;;
6113;SDS011;3087;48.392;10.836;2022-08-19T01:07:56;4.32;;;3.10;;
6113;SDS011;3087;48.392;10.836;2022-08-19T01:10:25;4.45;;;3.45;;
6113;SDS011;3087;48.392;10.836;2022-08-19T01:12:53;4.72;;;4.10;;
6113;SDS011;3087;48.392;10.836;2022-08-19T01:15:25;3.83;;;3.28;;
6113;SDS011;3087;48.392;10.836;2022-08-19T01:17:54;4.20;;;3.53;;
6113;SDS011;3087;48.392;10.836;2022-08-19T01:20:23;5.45;;;3.40;;
6113;SDS011;3087;48.392;10.836;2022-08-19T01:22:51;5.18;;;3.40;;
6113;SDS011;3087;48.392;10.836;2022-08-19T01:25:20;5.43;;;4.05;;
6113;SDS011;3087;48.392;10.836;2022-08-19T01:27:52;4.57;;;4.03;;
6113;SDS011;3087;48.392;10.836;2022-08-19T01:30:21;4.38;;;3.97;;
6113;SDS011;3087;48.392;10.836;2022-08-19T01:32:49;4.25;;;3.85;;
6113;SDS011;3087;48.392;10.836;2022-08-19T01:35:16;4.07;;;3.67;;
6113;SDS011;3087;48.392;10.836;2022-08-19T01:37:51;5.30;;;3.83;;
6113;SDS011;3087;48.392;10.836;2022-08-19T01:40:22;5.40;;;3.90;;
6113;SDS011;3087;48.392;10.836;2022-08-19T01:45:20;4.20;;;3.80;;
6113;SDS011;3087;48.392;10.836;2022-08-19T01:47:47;4.78;;;4.38;;
6113;SDS011;3087;48.392;10.836;2022-08-19T01:50:13;4.70;;;4.30;;
6113;SDS011;3087;48.392;10.836;2022-08-19T01:52:40;5.05;;;4.57;;
6113;SDS011;3087;48.392;10.836;2022-08-19T01:55:08;6.03;;;5.53;;
6113;SDS011;3087;48.392;10.836;2022-08-19T01:57:36;6.50;;;5.90;;
6113;SDS011;3087;48.392;10.836;2022-08-19T02:00:05;6.70;;;6.10;;
6113;SDS011;3087;48.392;10.836;2022-08-19T02:02:33;6.35;;;5.75;;
6113;SDS011;3087;48.392;10.836;2022-08-19T02:04:59;8.07;;;7.30;;
6113;SDS011;3087;48.392;10.836;2022-08-19T02:07:24;8.40;;;7.60;;
6113;SDS011;3087;48.392;10.836;2022-08-19T02:09:50;8.05;;;7.25;;
6113;SDS011;3087;48.392;10.836;2022-08-19T02:12:16;9.00;;;8.20;;
6113;SDS011;3087;48.392;10.836;2022-08-19T02:14:41;9.77;;;8.88;;
6113;SDS011;3087;48.392;10.836;2022-08-19T02:17:07;11.52;;;10.05;;
6113;SDS011;3087;48.392;10.836;2022-08-19T02:19:33;10.88;;;9.77;;
6113;SDS011;3087;48.392;10.836;2022-08-19T02:21:59;11.07;;;10.07;;
6113;SDS011;3087;48.392;10.836;2022-08-19T02:24:25;11.48;;;10.45;;
6113;SDS011;3087;48.392;10.836;2022-08-19T02:26:52;11.20;;;10.20;;
6113;SDS011;3087;48.392;10.836;2022-08-19T02:29:18;11.35;;;10.35;;
6113;SDS011;3087;48.392;10.836;2022-08-19T02:31:44;12.82;;;11.63;;
6113;SDS011;3087;48.392;10.836;2022-08-19T02:34:10;12.43;;;11.32;;
6113;SDS011;3087;48.392;10.836;2022-08-19T02:36:35;10.43;;;9.52;;
6113;SDS011;3087;48.392;10.836;2022-08-19T02:39:01;11.32;;;10.32;;
6113;SDS011;3087;48.392;10.836;2022-08-19T02:41:29;11.05;;;10.05;;
6113;SDS011;3087;48.392;10.836;2022-08-19T02:43:58;13.80;;;12.38;;
6113;SDS011;3087;48.392;10.836;2022-08-19T02:46:27;12.15;;;10.93;;
6113;SDS011;3087;48.392;10.836;2022-08-19T02:48:55;13.10;;;11.98;;
6113;SDS011;3087;48.392;10.836;2022-08-19T02:51:24;12.13;;;11.05;;
6113;SDS011;3087;48.392;10.836;2022-08-19T02:53:51;14.95;;;13.60;;
6113;SDS011;3087;48.392;10.836;2022-08-19T02:56:18;15.25;;;13.77;;
6113;SDS011;3087;48.392;10.836;2022-08-19T02:58:45;17.25;;;15.55;;
6113;SDS011;3087;48.392;10.836;2022-08-19T03:01:19;15.88;;;14.48;;
6113;SDS011;3087;48.392;10.836;2022-08-19T03:03:47;16.98;;;15.38;;
6113;SDS011;3087;48.392;10.836;2022-08-19T03:06:14;16.42;;;14.85;;
6113;SDS011;3087;48.392;10.836;2022-08-19T03:08:41;14.65;;;13.35;;
6113;SDS011;3087;48.392;10.836;2022-08-19T03:11:15;17.95;;;16.00;;
6113;SDS011;3087;48.392;10.836;2022-08-19T03:13:43;15.77;;;14.20;;
6113;SDS011;3087;48.392;10.836;2022-08-19T03:16:09;16.00;;;14.60;;
6113;SDS011;3087;48.392;10.836;2022-08-19T03:18:36;17.13;;;15.40;;
6113;SDS011;3087;48.392;10.836;2022-08-19T03:21:02;15.88;;;14.38;;
6113;SDS011;3087;48.392;10.836;2022-08-19T03:23:28;15.75;;;14.25;;
6113;SDS011;3087;48.392;10.836;2022-08-19T03:25:53;18.05;;;16.33;;
6113;SDS011;3087;48.392;10.836;2022-08-19T03:28:20;17.15;;;15.48;;
6113;SDS011;3087;48.392;10.836;2022-08-19T03:31:00;16.70;;;15.10;;
6113;SDS011;3087;48.392;10.836;2022-08-19T03:33:28;16.42;;;14.90;;
6113;SDS011;3087;48.392;10.836;2022-08-19T03:36:02;17.90;;;16.30;;
6113;SDS011;3087;48.392;10.836;2022-08-19T03:38:30;18.33;;;15.77;;
6113;SDS011;3087;48.392;10.836;2022-08-19T03:40:57;18.48;;;16.77;;
6113;SDS011;3087;48.392;10.836;2022-08-19T03:43:23;17.88;;;16.30;;
6113;SDS011;3087;48.392;10.836;2022-08-19T03:45:49;18.73;;;16.92;;
6113;SDS011;3087;48.392;10.836;2022-08-19T03:48:29;17.30;;;15.70;;
6113;SDS011;3087;48.392;10.836;2022-08-19T03:50:56;18.45;;;16.52;;
6113;SDS011;3087;48.392;10.836;2022-08-19T03:53:23;18.05;;;16.38;;
6113;SDS011;3087;48.392;10.836;2022-08-19T03:55:48;19.77;;;17.98;;
6113;SDS011;3087;48.392;10.836;2022-08-19T03:58:14;19.60;;;17.90;;
6113;SDS011;3087;48.392;10.836;2022-08-19T04:00:42;17.73;;;16.08;;
6113;SDS011;3087;48.392;10.836;2022-08-19T04:03:08;19.02;;;17.17;;
6113;SDS011;3087;48.392;10.836;2022-08-19T04:05:34;18.52;;;16.67;;
6113;SDS011;3087;48.392;10.836;2022-08-19T04:07:59;19.63;;;17.67;;
6113;SDS011;3087;48.392;10.836;2022-08-19T04:10:25;17.02;;;15.45;;
6113;SDS011;3087;48.392;10.836;2022-08-19T04:12:53;19.40;;;17.48;;
6113;SDS011;3087;48.392;10.836;2022-08-19T04:15:18;19.45;;;17.65;;
6113;SDS011;3087;48.392;10.836;2022-08-19T04:17:45;17.98;;;16.38;;
6113;SDS011;3087;48.392;10.836;2022-08-19T04:20:11;18.38;;;16.58;;
6113;SDS011;3087;48.392;10.836;2022-08-19T04:22:37;19.10;;;17.25;;
6113;SDS011;3087;48.392;10.836;2022-08-19T04:25:03;20.73;;;18.73;;
6113;SDS011;3087;48.392;10.836;2022-08-19T04:27:28;18.60;;;16.90;;
6113;SDS011;3087;48.392;10.836;2022-08-19T04:29:56;18.38;;;16.65;;
6113;SDS011;3087;48.392;10.836;2022-08-19T04:32:22;18.17;;;16.48;;
6113;SDS011;3087;48.392;10.836;2022-08-19T04:34:47;17.75;;;16.15;;
6113;SDS011;3087;48.392;10.836;2022-08-19T04:37:13;17.10;;;15.50;;
6113;SDS011;3087;48.392;10.836;2022-08-19T04:39:39;16.65;;;15.00;;
6113;SDS011;3087;48.392;10.836;2022-08-19T04:42:28;17.40;;;15.82;;
6113;SDS011;3087;48.392;10.836;2022-08-19T04:45:07;16.27;;;14.70;;
6113;SDS011;3087;48.392;10.836;2022-08-19T04:47:37;16.45;;;14.85;;
6113;SDS011;3087;48.392;10.836;2022-08-19T04:50:04;16.58;;;15.05;;
6113;SDS011;3087;48.392;10.836;2022-08-19T04:52:30;17.67;;;16.02;;
6113;SDS011;3087;48.392;10.836;2022-08-19T04:54:57;14.80;;;13.40;;
6113;SDS011;3087;48.392;10.836;2022-08-19T04:57:23;15.77;;;14.30;;
6113;SDS011;3087;48.392;10.836;2022-08-19T04:59:49;17.33;;;15.68;;
6113;SDS011;3087;48.392;10.836;2022-08-19T05:02:19;15.80;;;14.40;;
6113;SDS011;3087;48.392;10.836;2022-08-19T05:04:48;16.08;;;14.68;;
6113;SDS011;3087;48.392;10.836;2022-08-19T05:07:13;16.20;;;14.50;;
6113;SDS011;3087;48.392;10.836;2022-08-19T05:09:39;18.38;;;16.63;;
6113;SDS011;3087;48.392;10.836;2022-08-19T05:12:04;24.13;;;21.73;;
6113;SDS011;3087;48.392;10.836;2022-08-19T05:14:31;16.63;;;15.07;;
6113;SDS011;3087;48.392;10.836;2022-08-19T05:16:56;17.52;;;15.85;;
6113;SDS011;3087;48.392;10.836;2022-08-19T05:19:22;15.38;;;13.85;;
6113;SDS011;3087;48.392;10.836;2022-08-19T05:22:06;16.58;;;15.07;;
6113;SDS011;3087;48.392;10.836;2022-08-19T05:24:50;17.90;;;16.30;;
6113;SDS011;3087;48.392;10.836;2022-08-19T05:27:15;14.88;;;13.55;;
6113;SDS011;3087;48.392;10.836;2022-08-19T05:29:41;15.50;;;14.10;;
6113;SDS011;3087;48.392;10.836;2022-08-19T05:32:07;15.95;;;14.45;;
6113;SDS011;3087;48.392;10.836;2022-08-19T05:34:34;15.38;;;13.63;;
6113;SDS011;3087;48.392;10.836;2022-08-19T05:37:01;14.52;;;13.05;;
6113;SDS011;3087;48.392;10.836;2022-08-19T05:39:28;15.10;;;13.55;;
6113;SDS011;3087;48.392;10.836;2022-08-19T05:41:56;15.43;;;13.85;;
6113;SDS011;3087;48.392;10.836;2022-08-19T05:44:25;15.38;;;13.88;;
6113;SDS011;3087;48.392;10.836;2022-08-19T05:46:52;14.68;;;13.27;;
6113;SDS011;3087;48.392;10.836;2022-08-19T05:49:20;14.90;;;13.50;;
6113;SDS011;3087;48.392;10.836;2022-08-19T05:51:47;16.42;;;14.75;;
6113;SDS011;3087;48.392;10.836;2022-08-19T05:54:14;14.77;;;13.27;;
6113;SDS011;3087;48.392;10.836;2022-08-19T05:56:40;14.52;;;13.23;;
6113;SDS011;3087;48.392;10.836;2022-08-19T05:59:07;16.45;;;14.75;;
6113;SDS011;3087;48.392;10.836;2022-08-19T06:01:40;19.55;;;17.55;;
6113;SDS011;3087;48.392;10.836;2022-08-19T06:04:07;17.70;;;15.95;;
6113;SDS011;3087;48.392;10.836;2022-08-19T06:06:33;16.75;;;15.15;;
6113;SDS011;3087;48.392;10.836;2022-08-19T06:09:01;16.40;;;14.80;;
6113;SDS011;3087;48.392;10.836;2022-08-19T06:11:47;15.45;;;13.95;;
6113;SDS011;3087;48.392;10.836;2022-08-19T06:14:19;19.23;;;17.33;;
6113;SDS011;3087;48.392;10.836;2022-08-19T06:16:47;16.48;;;14.98;;
6113;SDS011;3087;48.392;10.836;2022-08-19T06:19:14;16.73;;;15.13;;
6113;SDS011;3087;48.392;10.836;2022-08-19T06:21:42;16.92;;;15.32;;
6113;SDS011;3087;48.392;10.836;2022-08-19T06:24:12;18.58;;;16.77;;
6113;SDS011;3087;48.392;10.836;2022-08-19T06:26:41;17.88;;;16.17;;
6113;SDS011;3087;48.392;10.836;2022-08-19T06:29:09;17.67;;;15.90;;
6113;SDS011;3087;48.392;10.836;2022-08-19T06:31:36;18.08;;;16.27;;
6113;SDS011;3087;48.392;10.836;2022-08-19T06:34:04;16.25;;;14.65;;
6113;SDS011;3087;48.392;10.836;2022-08-19T06:36:31;19.00;;;17.05;;
6113;SDS011;3087;48.392;10.836;2022-08-19T06:39:03;18.35;;;16.63;;
6113;SDS011;3087;48.392;10.836;2022-08-19T06:41:31;18.60;;;16.88;;
6113;SDS011;3087;48.392;10.836;2022-08-19T06:44:00;20.83;;;18.63;;
6113;SDS011;3087;48.392;10.836;2022-08-19T06:46:27;19.42;;;17.50;;
6113;SDS011;3087;48.392;10.836;2022-08-19T06:48:53;18.00;;;16.15;;
6113;SDS011;3087;48.392;10.836;2022-08-19T06:51:19;18.48;;;16.67;;
6113;SDS011;3087;48.392;10.836;2022-08-19T06:53:46;18.13;;;16.23;;
6113;SDS011;3087;48.392;10.836;2022-08-19T06:56:17;21.80;;;19.52;;
6113;SDS011;3087;48.392;10.836;2022-08-19T06:58:50;22.13;;;19.88;;
6113;SDS011;3087;48.392;10.836;2022-08-19T07:01:18;21.80;;;19.63;;
6113;SDS011;3087;48.392;10.836;2022-08-19T07:03:44;23.65;;;21.23;;
6113;SDS011;3087;48.392;10.836;2022-08-19T07:06:12;21.67;;;19.48;;
6113;SDS011;3087;48.392;10.836;2022-08-19T07:08:42;20.00;;;18.00;;
6113;SDS011;3087;48.392;10.836;2022-08-19T07:11:13;21.42;;;19.33;;
6113;SDS011;3087;48.392;10.836;2022-08-19T07:13:42;23.60;;;21.10;;
6113;SDS011;3087;48.392;10.836;2022-08-19T07:16:18;24.05;;;21.55;;
6113;SDS011;3087;48.392;10.836;2022-08-19T07:18:45;21.85;;;19.55;;
6113;SDS011;3087;48.392;10.836;2022-08-19T07:21:22;27.20;;;22.38;;
6113;SDS011;3087;48.392;10.836;2022-08-19T07:23:56;24.17;;;21.27;;
6113;SDS011;3087;48.392;10.836;2022-08-19T07:26:26;24.80;;;22.30;;
6113;SDS011;3087;48.392;10.836;2022-08-19T07:28:54;24.67;;;22.17;;
6113;SDS011;3087;48.392;10.836;2022-08-19T07:31:22;21.50;;;19.30;;
6113;SDS011;3087;48.392;10.836;2022-08-19T07:33:49;22.67;;;20.33;;
6113;SDS011;3087;48.392;10.836;2022-08-19T07:36:18;21.77;;;19.50;;
6113;SDS011;3087;48.392;10.836;2022-08-19T07:38:46;20.95;;;18.77;;
6113;SDS011;3087;48.392;10.836;2022-08-19T07:41:15;20.80;;;18.77;;
6113;SDS011;3087;48.392;10.836;2022-08-19T07:43:43;22.13;;;19.88;;
6113;SDS011;3087;48.392;10.836;2022-08-19T07:46:09;22.67;;;20.25;;
6113;SDS011;3087;48.392;10.836;2022-08-19T07:48:37;24.02;;;21.52;;
6113;SDS011;3087;48.392;10.836;2022-08-19T07:51:04;26.17;;;23.38;;
6113;SDS011;3087;48.392;10.836;2022-08-19T07:53:33;27.08;;;24.30;;
6113;SDS011;3087;48.392;10.836;2022-08-19T07:55:59;26.27;;;22.48;;
6113;SDS011;3087;48.392;10.836;2022-08-19T07:58:29;29.52;;;26.42;;
6113;SDS011;3087;48.392;10.836;2022-08-19T08:00:59;28.42;;;25.42;;
6113;SDS011;3087;48.392;10.836;2022-08-19T08:03:27;30.30;;;26.58;;
6113;SDS011;3087;48.392;10.836;2022-08-19T08:06:13;29.58;;;26.10;;
6113;SDS011;3087;48.392;10.836;2022-08-19T08:08:58;26.85;;;23.95;;
6113;SDS011;3087;48.392;10.836;2022-08-19T08:11:50;28.88;;;25.77;;
6113;SDS011;3087;48.392;10.836;2022-08-19T08:15:06;26.05;;;23.38;;
6113;SDS011;3087;48.392;10.836;2022-08-19T08:17:13;27.27;;;24.55;;
6113;SDS011;3087;48.392;10.836;2022-08-19T08:19:44;27.42;;;24.48;;
6113;SDS011;3087;48.392;10.836;2022-08-19T08:22:11;27.00;;;23.75;;
6113;SDS011;3087;48.392;10.836;2022-08-19T08:27:35;26.80;;;23.95;;
6113;SDS011;3087;48.392;10.836;2022-08-19T08:30:04;28.48;;;25.58;;
6113;SDS011;3087;48.392;10.836;2022-08-19T08:32:34;25.70;;;23.00;;
6113;SDS011;3087;48.392;10.836;2022-08-19T08:35:00;26.52;;;23.67;;
6113;SDS011;3087;48.392;10.836;2022-08-19T08:37:26;27.90;;;25.05;;
6113;SDS011;3087;48.392;10.836;2022-08-19T08:39:51;26.92;;;24.13;;
6113;SDS011;3087;48.392;10.836;2022-08-19T08:42:27;27.52;;;24.67;;
6113;SDS011;3087;48.392;10.836;2022-08-19T08:44:59;25.90;;;23.20;;
6113;SDS011;3087;48.392;10.836;2022-08-19T08:47:29;28.27;;;23.92;;
6113;SDS011;3087;48.392;10.836;2022-08-19T08:50:02;28.35;;;24.75;;
6113;SDS011;3087;48.392;10.836;2022-08-19T08:52:35;24.65;;;22.15;;
6113;SDS011;3087;48.392;10.836;2022-08-19T08:55:11;24.35;;;21.95;;
6113;SDS011;3087;48.392;10.836;2022-08-19T09:00:30;28.38;;;25.27;;
6113;SDS011;3087;48.392;10.836;2022-08-19T09:02:59;28.52;;;25.45;;
6113;SDS011;3087;48.392;10.836;2022-08-19T09:08:11;28.15;;;25.20;;
6113;SDS011;3087;48.392;10.836;2022-08-19T09:10:52;30.10;;;26.60;;
6113;SDS011;3087;48.392;10.836;2022-08-19T09:13:27;29.00;;;26.00;;
6113;SDS011;3087;48.392;10.836;2022-08-19T09:16:18;28.23;;;25.23;;
6113;SDS011;3087;48.392;10.836;2022-08-19T09:18:46;31.67;;;28.27;;
6113;SDS011;3087;48.392;10.836;2022-08-19T09:21:18;29.05;;;25.92;;
6113;SDS011;3087;48.392;10.836;2022-08-19T09:23:45;28.83;;;25.52;;
6113;SDS011;3087;48.392;10.836;2022-08-19T09:26:12;30.83;;;27.52;;
6113;SDS011;3087;48.392;10.836;2022-08-19T09:28:40;28.95;;;25.92;;
6113;SDS011;3087;48.392;10.836;2022-08-19T09:31:09;29.92;;;25.52;;
6113;SDS011;3087;48.392;10.836;2022-08-19T09:33:36;30.05;;;26.75;;
6113;SDS011;3087;48.392;10.836;2022-08-19T09:36:03;31.80;;;26.75;;
6113;SDS011;3087;48.392;10.836;2022-08-19T09:38:34;30.27;;;26.98;;
6113;SDS011;3087;48.392;10.836;2022-08-19T09:41:04;27.50;;;24.65;;
6113;SDS011;3087;48.392;10.836;2022-08-19T09:43:32;29.00;;;25.92;;
6113;SDS011;3087;48.392;10.836;2022-08-19T09:46:01;29.60;;;25.65;;
6113;SDS011;3087;48.392;10.836;2022-08-19T09:48:27;29.60;;;26.40;;
6113;SDS011;3087;48.392;10.836;2022-08-19T09:50:53;30.23;;;26.75;;
6113;SDS011;3087;48.392;10.836;2022-08-19T09:53:19;29.60;;;26.38;;
6113;SDS011;3087;48.392;10.836;2022-08-19T09:55:47;27.27;;;24.40;;
6113;SDS011;3087;48.392;10.836;2022-08-19T09:58:13;27.88;;;24.90;;
6113;SDS011;3087;48.392;10.836;2022-08-19T10:00:38;26.83;;;24.02;;
6113;SDS011;3087;48.392;10.836;2022-08-19T10:03:04;29.17;;;26.15;;
6113;SDS011;3087;48.392;10.836;2022-08-19T10:05:29;27.90;;;24.95;;
6113;SDS011;3087;48.392;10.836;2022-08-19T10:08:14;27.77;;;24.77;;
6113;SDS011;3087;48.392;10.836;2022-08-19T10:10:44;28.30;;;24.65;;
6113;SDS011;3087;48.392;10.836;2022-08-19T10:13:11;31.27;;;27.45;;
6113;SDS011;3087;48.392;10.836;2022-08-19T10:15:37;30.17;;;26.92;;
6113;SDS011;3087;48.392;10.836;2022-08-19T10:18:04;28.73;;;24.83;;
6113;SDS011;3087;48.392;10.836;2022-08-19T10:20:31;28.55;;;25.65;;
6113;SDS011;3087;48.392;10.836;2022-08-19T10:22:57;30.45;;;27.27;;
6113;SDS011;3087;48.392;10.836;2022-08-19T10:25:24;30.10;;;26.80;;
6113;SDS011;3087;48.392;10.836;2022-08-19T10:27:51;27.13;;;24.17;;
6113;SDS011;3087;48.392;10.836;2022-08-19T10:30:17;28.00;;;25.10;;
6113;SDS011;3087;48.392;10.836;2022-08-19T10:32:44;27.63;;;24.65;;
6113;SDS011;3087;48.392;10.836;2022-08-19T10:35:10;28.63;;;25.50;;
6113;SDS011;3087;48.392;10.836;2022-08-19T10:37:37;29.60;;;24.67;;
6113;SDS011;3087;48.392;10.836;2022-08-19T10:40:07;25.88;;;23.05;;
6113;SDS011;3087;48.392;10.836;2022-08-19T10:42:35;23.60;;;21.13;;
6113;SDS011;3087;48.392;10.836;2022-08-19T10:45:01;24.65;;;22.10;;
6113;SDS011;3087;48.392;10.836;2022-08-19T10:47:28;24.35;;;21.85;;
6113;SDS011;3087;48.392;10.836;2022-08-19T10:49:54;26.05;;;23.23;;
6113;SDS011;3087;48.392;10.836;2022-08-19T10:52:40;25.15;;;22.52;;
6113;SDS011;3087;48.392;10.836;2022-08-19T10:55:07;22.67;;;20.17;;
6113;SDS011;3087;48.392;10.836;2022-08-19T10:57:52;24.60;;;21.55;;
6113;SDS011;3087;48.392;10.836;2022-08-19T11:00:18;24.90;;;22.23;;
6113;SDS011;3087;48.392;10.836;2022-08-19T11:02:45;21.92;;;19.70;;
6113;SDS011;3087;48.392;10.836;2022-08-19T11:05:10;24.13;;;21.50;;
6113;SDS011;3087;48.392;10.836;2022-08-19T11:07:40;25.45;;;22.73;;
6113;SDS011;3087;48.392;10.836;2022-08-19T11:10:06;22.77;;;20.25;;
6113;SDS011;3087;48.392;10.836;2022-08-19T11:12:35;28.02;;;22.67;;
6113;SDS011;3087;48.392;10.836;2022-08-19T11:15:05;20.90;;;18.70;;
6113;SDS011;3087;48.392;10.836;2022-08-19T11:17:34;21.05;;;18.83;;
6113;SDS011;3087;48.392;10.836;2022-08-19T11:20:01;25.63;;;22.00;;
6113;SDS011;3087;48.392;10.836;2022-08-19T11:22:29;28.40;;;23.08;;
6113;SDS011;3087;48.392;10.836;2022-08-19T11:24:55;18.77;;;16.25;;
6113;SDS011;3087;48.392;10.836;2022-08-19T11:27:21;30.98;;;17.02;;
6113;SDS011;3087;48.392;10.836;2022-08-19T11:29:46;31.48;;;16.42;;
6113;SDS011;3087;48.392;10.836;2022-08-19T11:32:12;38.78;;;16.50;;
6113;SDS011;3087;48.392;10.836;2022-08-19T11:34:38;14.55;;;10.63;;
6113;SDS011;3087;48.392;10.836;2022-08-19T11:37:04;26.30;;;12.38;;
6113;SDS011;3087;48.392;10.836;2022-08-19T11:39:31;17.48;;;9.63;;
6113;SDS011;3087;48.392;10.836;2022-08-19T11:41:58;35.15;;;16.20;;
6113;SDS011;3087;48.392;10.836;2022-08-19T11:44:24;24.13;;;14.02;;
6113;SDS011;3087;48.392;10.836;2022-08-19T11:46:50;22.90;;;13.45;;
6113;SDS011;3087;48.392;10.836;2022-08-19T11:49:18;14.15;;;9.77;;
6113;SDS011;3087;48.392;10.836;2022-08-19T11:51:44;12.07;;;10.05;;
6113;SDS011;3087;48.392;10.836;2022-08-19T11:54:11;13.15;;;11.68;;
6113;SDS011;3087;48.392;10.836;2022-08-19T11:56:38;14.98;;;13.23;;
6113;SDS011;3087;48.392;10.836;2022-08-19T11:59:04;15.20;;;12.52;;
6113;SDS011;3087;48.392;10.836;2022-08-19T12:01:30;19.00;;;14.43;;
6113;SDS011;3087;48.392;10.836;2022-08-19T12:03:57;20.45;;;16.15;;
6113;SDS011;3087;48.392;10.836;2022-08-19T12:06:24;18.75;;;15.85;;
6113;SDS011;3087;48.392;10.836;2022-08-19T12:08:53;18.20;;;14.32;;
6113;SDS011;3087;48.392;10.836;2022-08-19T12:11:20;15.23;;;13.73;;
6113;SDS011;3087;48.392;10.836;2022-08-19T12:13:46;16.92;;;14.57;;
6113;SDS011;3087;48.392;10.836;2022-08-19T12:16:23;15.45;;;13.85;;
6113;SDS011;3087;48.392;10.836;2022-08-19T12:18:51;13.07;;;11.75;;
6113;SDS011;3087;48.392;10.836;2022-08-19T12:21:20;14.00;;;12.50;;
6113;SDS011;3087;48.392;10.836;2022-08-19T12:23:53;15.00;;;12.93;;
6113;SDS011;3087;48.392;10.836;2022-08-19T12:26:20;12.07;;;10.88;;
6113;SDS011;3087;48.392;10.836;2022-08-19T12:28:46;11.10;;;10.10;;
6113;SDS011;3087;48.392;10.836;2022-08-19T12:31:13;11.57;;;10.38;;
6113;SDS011;3087;48.392;10.836;2022-08-19T12:33:39;11.68;;;10.50;;
6113;SDS011;3087;48.392;10.836;2022-08-19T12:36:07;8.35;;;7.55;;
6113;SDS011;3087;48.392;10.836;2022-08-19T12:38:35;9.63;;;8.68;;
6113;SDS011;3087;48.392;10.836;2022-08-19T12:41:01;9.60;;;8.60;;
6113;SDS011;3087;48.392;10.836;2022-08-19T12:43:31;8.27;;;7.35;;
6113;SDS011;3087;48.392;10.836;2022-08-19T12:46:00;7.85;;;7.15;;
6113;SDS011;3087;48.392;10.836;2022-08-19T12:48:27;7.57;;;6.60;;
6113;SDS011;3087;48.392;10.836;2022-08-19T12:50:54;7.78;;;7.07;;
6113;SDS011;3087;48.392;10.836;2022-08-19T12:53:19;7.40;;;6.70;;
6113;SDS011;3087;48.392;10.836;2022-08-19T12:55:45;7.18;;;6.55;;
6113;SDS011;3087;48.392;10.836;2022-08-19T12:58:11;9.60;;;8.68;;
6113;SDS011;3087;48.392;10.836;2022-08-19T13:00:37;8.00;;;7.30;;
6113;SDS011;3087;48.392;10.836;2022-08-19T13:03:03;8.82;;;8.02;;
6113;SDS011;3087;48.392;10.836;2022-08-19T13:05:30;7.80;;;7.05;;
6113;SDS011;3087;48.392;10.836;2022-08-19T13:07:58;8.73;;;7.93;;
6113;SDS011;3087;48.392;10.836;2022-08-19T13:10:28;8.05;;;7.35;;
6113;SDS011;3087;48.392;10.836;2022-08-19T13:12:59;7.60;;;6.90;;
6113;SDS011;3087;48.392;10.836;2022-08-19T13:15:27;7.88;;;7.22;;
6113;SDS011;3087;48.392;10.836;2022-08-19T13:17:54;9.18;;;8.38;;
6113;SDS011;3087;48.392;10.836;2022-08-19T13:20:21;8.68;;;7.85;;
6113;SDS011;3087;48.392;10.836;2022-08-19T13:22:47;8.63;;;7.38;;
6113;SDS011;3087;48.392;10.836;2022-08-19T13:25:15;8.43;;;7.63;;
6113;SDS011;3087;48.392;10.836;2022-08-19T13:27:42;8.10;;;7.38;;
6113;SDS011;3087;48.392;10.836;2022-08-19T13:30:09;8.93;;;8.13;;
6113;SDS011;3087;48.392;10.836;2022-08-19T13:32:55;10.05;;;8.82;;
6113;SDS011;3087;48.392;10.836;2022-08-19T13:35:37;10.38;;;8.30;;
6113;SDS011;3087;48.392;10.836;2022-08-19T13:38:04;10.25;;;9.18;;
6113;SDS011;3087;48.392;10.836;2022-08-19T13:40:30;10.13;;;9.13;;
6113;SDS011;3087;48.392;10.836;2022-08-19T13:42:59;10.38;;;9.38;;
6113;SDS011;3087;48.392;10.836;2022-08-19T13:45:26;11.32;;;9.82;;
6113;SDS011;3087;48.392;10.836;2022-08-19T13:47:53;12.20;;;11.00;;
6113;SDS011;3087;48.392;10.836;2022-08-19T13:50:22;12.13;;;10.93;;
6113;SDS011;3087;48.392;10.836;2022-08-19T13:52:53;12.95;;;11.65;;
6113;SDS011;3087;48.392;10.836;2022-08-19T13:55:19;13.35;;;12.05;;
6113;SDS011;3087;48.392;10.836;2022-08-19T13:57:45;14.68;;;13.32;;
6113;SDS011;3087;48.392;10.836;2022-08-19T14:00:16;13.68;;;12.18;;
6113;SDS011;3087;48.392;10.836;2022-08-19T14:02:43;14.77;;;13.38;;
6113;SDS011;3087;48.392;10.836;2022-08-19T14:05:15;15.82;;;14.23;;
6113;SDS011;3087;48.392;10.836;2022-08-19T14:07:41;14.95;;;13.57;;
6113;SDS011;3087;48.392;10.836;2022-08-19T14:10:07;16.20;;;14.60;;
6113;SDS011;3087;48.392;10.836;2022-08-19T14:12:35;15.98;;;14.52;;
6113;SDS011;3087;48.392;10.836;2022-08-19T14:15:01;16.40;;;14.80;;
6113;SDS011;3087;48.392;10.836;2022-08-19T14:17:28;16.60;;;15.00;;
6113;SDS011;3087;48.392;10.836;2022-08-19T14:19:57;15.77;;;14.27;;
6113;SDS011;3087;48.392;10.836;2022-08-19T14:22:32;15.38;;;13.82;;
6113;SDS011;3087;48.392;10.836;2022-08-19T14:24:58;14.82;;;13.32;;
6113;SDS011;3087;48.392;10.836;2022-08-19T14:27:24;14.70;;;13.30;;
6113;SDS011;3087;48.392;10.836;2022-08-19T14:29:51;15.27;;;13.68;;
6113;SDS011;3087;48.392;10.836;2022-08-19T14:32:17;16.30;;;14.70;;
6113;SDS011;3087;48.392;10.836;2022-08-19T14:34:43;15.57;;;14.13;;
6113;SDS011;3087;48.392;10.836;2022-08-19T14:37:12;14.35;;;12.95;;
6113;SDS011;3087;48.392;10.836;2022-08-19T14:39:40;16.33;;;14.70;;
6113;SDS011;3087;48.392;10.836;2022-08-19T14:42:09;15.57;;;14.02;;
6113;SDS011;3087;48.392;10.836;2022-08-19T14:44:36;15.20;;;13.80;;
6113;SDS011;3087;48.392;10.836;2022-08-19T14:47:02;13.52;;;12.32;;
6113;SDS011;3087;48.392;10.836;2022-08-19T14:49:29;14.20;;;12.80;;
6113;SDS011;3087;48.392;10.836;2022-08-19T14:51:54;13.00;;;11.80;;
6113;SDS011;3087;48.392;10.836;2022-08-19T14:54:21;13.30;;;12.02;;
6113;SDS011;3087;48.392;10.836;2022-08-19T14:56:47;12.00;;;10.98;;
6113;SDS011;3087;48.392;10.836;2022-08-19T14:59:14;12.43;;;11.23;;